TimeCDT,TemperatureF,Dew PointF,Humidity,Sea Level PressureIn,VisibilityMPH,Wind Direction,Wind SpeedMPH,Gust SpeedMPH,PrecipitationIn,Events,Conditions,WindDirDegrees,DateUTC
12:53 AM,32.0,28.0,85,30.34,10.0,NNW,9.2,-,0.00,,Partly Cloudy,340,2013-04-24 05:53:00
1:53 AM,30.0,27.0,88,30.36,10.0,NNW,8.1,-,N/A,,Clear,330,2013-04-24 06:53:00
2:53 AM,28.0,26.1,92,30.32,10.0,NNW,5.8,-,N/A,,Clear,340,2013-04-24 07:53:00
3:53 AM,27.0,25.0,92,30.32,9.0,NW,5.8,-,N/A,,Clear,320,2013-04-24 08:53:00
5:53 AM,27.0,24.1,89,30.35,8.0,West,8.1,-,N/A,,Clear,280,2013-04-24 10:53:00
6:53 AM,26.1,23.0,88,30.35,6.0,West,6.9,-,N/A,,Clear,280,2013-04-24 11:53:00
7:53 AM,30.0,26.1,85,30.36,8.0,West,6.9,-,N/A,,Clear,280,2013-04-24 12:53:00
8:53 AM,37.0,28.9,73,30.36,10.0,NNW,9.2,-,N/A,,Clear,330,2013-04-24 13:53:00
9:53 AM,42.1,26.1,53,30.35,10.0,NNW,11.5,-,N/A,,Clear,330,2013-04-24 14:53:00
10:53 AM,45.0,24.1,44,30.36,10.0,NNW,5.8,-,N/A,,Clear,330,2013-04-24 15:53:00
11:53 AM,46.9,21.9,37,30.36,10.0,Calm,Calm,-,N/A,,Clear,0,2013-04-24 16:53:00
12:53 PM,51.1,24.1,35,30.33,10.0,Variable,6.9,-,N/A,,Clear,0,2013-04-24 17:53:00
1:53 PM,55.0,26.1,33,30.30,10.0,NNE,9.2,-,N/A,,Clear,20,2013-04-24 18:53:00
2:53 PM,57.0,25.0,29,30.28,10.0,North,9.2,-,N/A,,Clear,350,2013-04-24 19:53:00
3:53 PM,57.0,24.1,28,30.27,10.0,Calm,Calm,-,N/A,,Clear,0,2013-04-24 20:53:00
4:53 PM,57.9,25.0,28,30.25,10.0,Variable,4.6,-,N/A,,Clear,0,2013-04-24 21:53:00
5:53 PM,59.0,24.1,26,30.25,10.0,NE,3.5,-,N/A,,Clear,50,2013-04-24 22:53:00
6:53 PM,57.0,26.1,30,30.26,10.0,East,5.8,-,N/A,,Clear,90,2013-04-24 23:53:00
7:53 PM,53.1,28.9,40,30.26,10.0,East,6.9,-,N/A,,Clear,80,2013-04-25 00:53:00
8:53 PM,50.0,30.9,48,30.27,10.0,SE,9.2,-,N/A,,Clear,130,2013-04-25 01:53:00
9:53 PM,48.0,30.0,50,30.30,10.0,SE,11.5,-,N/A,,Clear,130,2013-04-25 02:53:00
10:53 PM,46.0,32.0,58,30.32,10.0,SE,10.4,-,N/A,,Clear,140,2013-04-25 03:53:00
11:53 PM,39.9,33.1,77,30.33,10.0,South,8.1,-,N/A,,Clear,170,2013-04-25 04:53:00